createdAt,value
2023-02-22T00:02:29.231Z,97003.06
2023-02-22T00:06:31.158Z,96997.59
2023-02-22T00:10:34.203Z,96992.56
2023-02-22T00:14:34.649Z,96980.00
2023-02-22T00:18:34.926Z,96986.66
2023-02-22T00:22:38.337Z,96973.13
2023-02-22T00:26:41.320Z,96981.00
2023-02-22T00:30:43.827Z,96984.66
2023-02-22T00:34:44.910Z,96976.97
2023-02-22T00:38:45.807Z,96967.66
2023-02-22T00:42:49.602Z,96947.41
2023-02-22T00:46:50.054Z,96979.81
2023-02-22T00:50:55.356Z,96979.38
2023-02-22T00:54:57.949Z,96972.09
2023-02-22T00:59:01.083Z,96968.25
2023-02-22T01:03:02.699Z,96970.28
2023-02-22T01:07:03.425Z,96970.66
2023-02-22T01:11:04.124Z,96955.88
2023-02-22T01:15:10.748Z,96960.53
2023-02-22T01:19:12.657Z,96953.47
2023-02-22T01:23:12.913Z,96950.63
2023-02-22T01:27:14.326Z,96944.16
2023-02-22T01:31:17.733Z,96949.03
2023-02-22T01:35:24.021Z,96946.22
2023-02-22T01:39:24.337Z,96940.94
2023-02-22T01:43:29.725Z,96931.00
2023-02-22T01:47:33.006Z,96938.94
2023-02-22T01:51:39.491Z,96940.53
2023-02-22T01:55:42.034Z,96925.97
2023-02-22T01:59:51.462Z,96925.13
2023-02-22T02:04:01.760Z,96926.34
2023-02-22T02:08:08.965Z,96922.72
2023-02-22T02:12:13.991Z,96908.94
2023-02-22T02:16:17.464Z,96917.41
2023-02-22T02:20:36.542Z,96913.97
2023-02-22T02:25:38.304Z,96920.22
2023-02-22T02:30:33.738Z,96908.94
2023-02-22T02:34:51.047Z,96910.56
2023-02-22T02:39:04.225Z,96910.19
2023-02-22T02:43:21.377Z,96898.63
2023-02-22T02:47:31.675Z,96895.00
2023-02-22T02:51:43.770Z,96901.25
2023-02-22T02:55:53.456Z,96904.09
2023-02-22T03:00:04.092Z,96895.81
2023-02-22T03:04:24.969Z,96897.84
2023-02-22T03:08:44.510Z,96894.00
2023-02-22T03:13:06.220Z,96895.22
2023-02-22T03:17:25.018Z,96882.25
2023-02-22T03:21:42.139Z,96888.75
2023-02-22T03:25:55.130Z,96889.53
2023-02-22T03:30:04.411Z,96883.88
2023-02-22T03:34:17.376Z,96879.44
2023-02-22T03:38:25.892Z,96883.88
2023-02-22T03:42:41.111Z,96877.56
2023-02-22T03:46:49.493Z,96889.13
2023-02-22T03:50:59.836Z,96879.81
2023-02-22T03:55:00.471Z,96883.50
2023-02-22T03:59:12.760Z,96881.25
2023-02-22T04:03:15.026Z,96891.97
2023-02-22T04:07:19.884Z,96893.16
2023-02-22T04:11:23.810Z,96890.75
2023-02-22T04:15:27.980Z,96896.03
2023-02-22T04:19:46.149Z,96879.44
2023-02-22T04:23:50.335Z,96891.34
2023-02-22T04:27:53.517Z,96874.16
2023-02-22T04:32:25.786Z,96879.41
2023-02-22T04:36:29.443Z,96876.97
2023-02-22T04:40:33.742Z,96870.09
2023-02-22T04:44:35.509Z,96873.34
2023-02-22T04:48:55.476Z,96871.13
2023-02-22T04:53:04.872Z,96873.16
2023-02-22T04:57:08.758Z,96864.84
2023-02-22T05:01:10.469Z,96867.25
2023-02-22T05:05:16.297Z,96859.59
2023-02-22T05:09:20.839Z,96864.25
2023-02-22T05:13:38.520Z,96867.28
2023-02-22T05:17:41.950Z,96867.28
2023-02-22T05:21:50.513Z,96869.50
2023-02-22T05:25:59.227Z,96864.81
2023-02-22T05:30:03.876Z,96854.28
2023-02-22T05:34:06.646Z,96856.34
2023-02-22T05:38:16.552Z,96865.25
2023-02-22T05:42:17.524Z,96865.63
2023-02-22T05:46:18.640Z,96854.72
2023-02-22T05:50:26.936Z,96862.00
2023-02-22T05:54:34.339Z,96855.13
2023-02-22T05:58:35.090Z,96864.84
2023-02-22T06:02:37.263Z,96866.06
2023-02-22T06:07:00.676Z,96865.63
2023-02-22T06:11:05.207Z,96856.75
2023-02-22T06:15:07.138Z,96856.09
2023-02-22T06:19:09.899Z,96856.00
2023-02-22T06:23:14.471Z,96855.47
2023-02-22T06:27:20.623Z,96861.81
2023-02-22T06:31:24.817Z,96860.25
2023-02-22T06:35:25.614Z,96858.88
2023-02-22T06:39:34.220Z,96859.91
2023-02-22T06:43:40.572Z,96860.72
2023-02-22T06:47:48.050Z,96872.84
2023-02-22T06:51:50.281Z,96865.56
2023-02-22T06:55:54.542Z,96870.41
2023-02-22T06:59:58.026Z,96865.94
2023-02-22T07:03:58.725Z,96873.63
2023-02-22T07:08:15.222Z,96865.53
2023-02-22T07:12:22.104Z,96871.41
2023-02-22T07:16:30.750Z,96880.28
2023-02-22T07:20:37.642Z,96876.28
2023-02-22T07:24:43.289Z,96877.66
2023-02-22T07:28:45.954Z,96867.31
2023-02-22T07:33:14.525Z,96876.25
2023-02-22T07:37:20.123Z,96871.69
2023-02-22T07:41:21.264Z,96876.19
2023-02-22T07:45:27.714Z,96866.56
2023-02-22T07:49:31.995Z,96857.75
2023-02-22T07:53:36.836Z,96866.72
2023-02-22T07:57:49.054Z,96861.56
2023-02-22T08:01:53.516Z,96862.31
2023-02-22T08:06:03.614Z,96855.09
2023-02-22T08:10:06.768Z,96859.19
2023-02-22T08:14:14.438Z,96858.81
2023-02-22T08:18:23.501Z,96861.91
2023-02-22T08:22:31.546Z,96859.47
2023-02-22T08:26:37.892Z,96861.75
2023-02-22T08:30:43.844Z,96854.41
2023-02-22T08:34:51.394Z,96860.72
2023-02-22T08:38:58.533Z,96853.16
2023-02-22T08:42:59.900Z,96860.13
2023-02-22T08:47:04.534Z,96856.25
2023-02-22T08:51:13.239Z,96857.28
2023-02-22T08:55:17.829Z,96858.44
2023-02-22T08:59:20.605Z,96851.25
2023-02-22T09:03:28.472Z,96849.91
2023-02-22T09:07:32.438Z,96842.22
2023-02-22T09:11:45.494Z,96849.88
2023-02-22T09:15:48.622Z,96854.00
2023-02-22T09:19:56.661Z,96848.50
2023-02-22T09:23:57.477Z,96851.22
2023-02-22T09:28:02.134Z,96846.97
2023-02-22T09:32:18.081Z,96842.91
2023-02-22T09:36:26.138Z,96838.75
2023-02-22T09:40:36.821Z,96833.97
2023-02-22T09:44:54.750Z,96836.56
2023-02-22T09:49:13.538Z,96830.41
2023-02-22T09:53:33.285Z,96824.53
2023-02-22T09:57:44.112Z,96822.97
2023-02-22T10:02:01.094Z,96816.44
2023-02-22T10:06:12.811Z,96817.94
2023-02-22T10:10:24.339Z,96814.47
2023-02-22T10:15:16.175Z,96807.63
2023-02-22T10:19:54.989Z,96813.63
2023-02-22T10:24:17.440Z,96805.59
2023-02-22T10:28:36.231Z,96807.81
2023-02-22T10:32:48.766Z,96795.63
2023-02-22T10:37:06.368Z,96795.78
2023-02-22T10:41:28.271Z,96790.97
2023-02-22T10:45:37.834Z,96789.25
2023-02-22T10:49:47.017Z,96779.13
2023-02-22T10:54:25.176Z,96784.41
2023-02-22T10:58:31.312Z,96777.09
2023-02-22T11:02:39.559Z,96772.50
2023-02-22T11:06:51.212Z,96757.94
2023-02-22T11:11:07.530Z,96761.81
2023-02-22T11:15:35.785Z,96762.94
2023-02-22T11:19:39.407Z,96742.06
2023-02-22T11:23:53.785Z,96743.00
2023-02-22T11:28:00.360Z,96736.22
2023-02-22T11:32:07.556Z,96727.03
2023-02-22T11:36:18.108Z,96714.63
2023-02-22T11:40:24.332Z,96717.75
2023-02-22T11:44:34.473Z,96709.91
2023-02-22T11:48:55.388Z,96705.09
2023-02-22T11:53:30.402Z,96698.97
2023-02-22T11:57:58.508Z,96691.22
2023-02-22T12:02:33.313Z,96691.69
2023-02-22T12:06:53.473Z,96686.72
2023-02-22T12:11:13.516Z,96694.31
2023-02-22T12:15:38.118Z,96684.84
2023-02-22T12:19:48.938Z,96681.34
2023-02-22T12:24:18.243Z,96679.09
2023-02-22T12:28:38.061Z,96674.38
2023-02-22T12:32:47.251Z,96662.78
2023-02-22T12:37:01.814Z,96657.47
2023-02-22T12:41:21.361Z,96655.56
2023-02-22T12:45:48.237Z,96653.28
2023-02-22T12:50:16.705Z,96654.84
2023-02-22T12:54:38.286Z,96638.47
2023-02-22T12:58:54.741Z,96634.56
2023-02-22T13:03:07.874Z,96634.72
2023-02-22T13:07:37.645Z,96622.75
2023-02-22T13:16:35.536Z,96619.00
2023-02-22T13:20:49.934Z,96619.03
2023-02-22T13:25:06.920Z,96606.97
2023-02-22T13:29:22.375Z,96601.34
2023-02-22T13:33:56.921Z,96594.72
2023-02-22T13:38:29.845Z,96595.91
2023-02-22T13:43:12.498Z,96588.44
2023-02-22T13:48:02.656Z,96585.03
2023-02-22T13:52:14.943Z,96585.72
2023-02-22T13:56:19.215Z,96572.97
2023-02-22T14:00:58.289Z,96582.41
2023-02-22T14:05:15.056Z,96583.78
2023-02-22T14:09:50.862Z,96576.03
2023-02-22T14:14:22.864Z,96576.75
2023-02-22T14:18:23.491Z,96575.63
2023-02-22T14:22:33.275Z,96560.69
2023-02-22T14:26:38.225Z,96572.59
2023-02-22T14:30:42.942Z,96562.34
2023-02-22T14:34:57.188Z,96566.22
2023-02-22T14:39:20.962Z,96565.41
2023-02-22T14:43:27.256Z,96576.00
2023-02-22T14:47:35.610Z,96560.38
2023-02-22T14:51:47.242Z,96559.47
2023-02-22T14:55:56.861Z,96557.38
2023-02-22T15:00:22.561Z,96553.69
2023-02-22T15:04:31.176Z,96562.16
2023-02-22T15:08:34.743Z,96560.75
2023-02-22T15:12:47.261Z,96557.81
2023-02-22T15:16:56.754Z,96556.63
2023-02-22T15:21:05.889Z,96550.66
2023-02-22T15:25:12.366Z,96560.25
2023-02-22T15:29:24.814Z,96551.19
2023-02-22T15:33:38.218Z,96549.88
2023-02-22T15:37:38.631Z,96551.78
2023-02-22T15:41:43.398Z,96549.13
2023-02-22T15:45:51.148Z,96559.03
2023-02-22T15:50:25.850Z,96543.28
2023-02-22T15:54:28.035Z,96551.56
2023-02-22T15:58:32.373Z,96554.69
2023-02-22T16:02:44.702Z,96551.56
2023-02-22T16:06:48.621Z,96557.88
2023-02-22T16:11:01.438Z,96558.19
2023-02-22T16:15:03.092Z,96557.75
2023-02-22T16:19:42.107Z,96555.44
2023-02-22T16:23:52.132Z,96560.97
2023-02-22T16:27:57.573Z,96549.88
2023-02-22T16:31:58.344Z,96554.41
2023-02-22T16:36:02.082Z,96539.03
2023-02-22T16:40:02.639Z,96547.41
2023-02-22T16:44:04.085Z,96558.44
2023-02-22T16:48:14.674Z,96552.88
2023-02-22T16:52:18.004Z,96559.56
2023-02-22T16:56:23.601Z,96557.44
2023-02-22T17:00:31.812Z,96556.63
2023-02-22T17:04:32.439Z,96563.03
2023-02-22T17:08:36.044Z,96561.72
2023-02-22T17:12:36.775Z,96554.22
2023-02-22T17:16:39.141Z,96561.97
2023-02-22T17:20:45.203Z,96563.28
2023-02-22T17:24:53.921Z,96563.50
2023-02-22T17:28:54.318Z,96568.03
2023-02-22T17:32:56.224Z,96560.53
2023-02-22T17:36:57.180Z,96570.00
2023-02-22T17:41:05.084Z,96577.38
2023-02-22T17:45:06.036Z,96574.56
2023-02-22T17:49:08.675Z,96577.72
2023-02-22T17:53:11.391Z,96576.25
2023-02-22T17:57:15.924Z,96577.41
2023-02-22T18:01:27.284Z,96558.31
2023-02-22T18:05:29.860Z,96567.63
2023-02-22T18:09:31.613Z,96577.28
2023-02-22T18:13:36.738Z,96575.78
2023-02-22T18:17:39.197Z,96577.06
2023-02-22T18:21:41.290Z,96575.94
2023-02-22T18:25:43.730Z,96564.00
2023-02-22T18:29:49.380Z,96557.06
2023-02-22T18:33:53.621Z,96569.31
2023-02-22T18:37:54.129Z,96570.28
2023-02-22T18:41:54.628Z,96572.31
2023-02-22T18:45:57.812Z,96574.75
2023-02-22T18:49:58.255Z,96577.13
2023-02-22T18:54:02.832Z,96554.66
2023-02-22T18:58:11.264Z,96559.06
2023-02-22T19:02:17.476Z,96575.53
2023-02-22T19:06:19.996Z,96569.44
2023-02-22T19:10:23.063Z,96563.94
2023-02-22T19:14:24.512Z,96560.25
2023-02-22T19:18:29.193Z,96559.31
2023-02-22T19:22:33.036Z,96567.31
2023-02-22T19:26:34.946Z,96566.03
2023-02-22T19:30:35.661Z,96572.38
2023-02-22T19:34:44.063Z,96575.84
2023-02-22T19:38:46.576Z,96561.22
2023-02-22T19:42:49.086Z,96562.13
2023-02-22T19:46:49.739Z,96572.81
2023-02-22T19:50:58.884Z,96570.44
2023-02-22T19:55:00.428Z,96576.22
2023-02-22T19:59:09.498Z,96565.59
2023-02-22T20:03:13.589Z,96585.66
2023-02-22T20:07:16.739Z,96586.19
2023-02-22T20:11:18.359Z,96583.63
2023-02-22T20:15:19.506Z,96586.69
2023-02-22T20:19:23.174Z,96587.31
2023-02-22T20:23:26.580Z,96587.66
2023-02-22T20:27:28.072Z,96592.66
2023-02-22T20:31:31.229Z,96588.38
2023-02-22T20:35:32.015Z,96582.34
2023-02-22T20:39:35.437Z,96596.69
2023-02-22T20:43:38.334Z,96599.88
2023-02-22T20:47:39.072Z,96598.09
2023-02-22T20:51:44.888Z,96582.44
2023-02-22T20:55:59.267Z,96588.16
2023-02-22T21:00:00.992Z,96587.69
2023-02-22T21:04:03.797Z,96599.59
2023-02-22T21:08:04.463Z,96572.88
2023-02-22T21:12:13.737Z,96599.63
2023-02-22T21:16:21.407Z,96584.44
2023-02-22T21:20:22.657Z,96589.66
2023-02-22T21:24:24.030Z,96583.88
2023-02-22T21:28:32.383Z,96594.72
2023-02-22T21:32:45.537Z,96596.56
2023-02-22T21:36:47.142Z,96602.53
2023-02-22T21:40:50.807Z,96593.63
2023-02-22T21:44:56.520Z,96590.56
2023-02-22T21:48:58.808Z,96586.84
2023-02-22T21:53:01.031Z,96585.72
2023-02-22T21:57:02.796Z,96593.59
2023-02-22T22:01:17.697Z,96591.19
2023-02-22T22:05:32.810Z,96573.50
2023-02-22T22:09:38.251Z,96567.72
2023-02-22T22:13:42.467Z,96568.31
2023-02-22T22:17:46.391Z,96583.03
2023-02-22T22:21:49.978Z,96574.22
2023-02-22T22:25:51.448Z,96578.81
2023-02-22T22:29:51.810Z,96571.41
2023-02-22T22:33:56.491Z,96567.06
2023-02-22T22:37:59.833Z,96577.34
2023-02-22T22:42:00.393Z,96573.59
2023-02-22T22:46:03.500Z,96577.28
2023-02-22T22:50:07.936Z,96574.53
2023-02-22T22:54:09.527Z,96579.47
2023-02-22T22:58:10.128Z,96576.63
2023-02-22T23:02:13.535Z,96577.75
2023-02-22T23:06:17.550Z,96582.69
2023-02-22T23:10:22.696Z,96576.16
2023-02-22T23:14:31.358Z,96571.47
2023-02-22T23:18:34.149Z,96595.63
2023-02-22T23:22:38.008Z,96592.88
2023-02-22T23:26:42.110Z,96599.81
2023-02-22T23:30:42.808Z,96593.53
2023-02-22T23:34:44.579Z,96593.41
2023-02-22T23:38:49.627Z,96583.97
2023-02-22T23:42:53.995Z,96587.06
2023-02-22T23:46:55.837Z,96598.38
2023-02-22T23:50:59.287Z,96603.66
2023-02-22T23:55:05.842Z,96600.91
2023-02-22T23:59:11.367Z,96594.34
